Time;durP1;ratioP1;P1;durP2;ratioP2;P2;SDS_P1;SDS_P2;PMS_P1;PMS_P2;Temp;Humidity;BMP_temperature;BMP_pressure;BME280_temperature;BME280_humidity;BME280_pressure;Samples;Min_cycle;Max_cycle;Signal;HPM_P1;HPM_P2
2024/01/18 00:01:27;;;;;;;48.67;28.10;;;-2.00;1.00;;;;;;5013502;28;20429;-50
2024/01/18 00:03:52;;;;;;;44.63;26.13;;;-2.00;1.00;;;;;;5013815;28;20179;-50
2024/01/18 00:06:18;;;;;;;50.33;28.17;;;-2.00;1.00;;;;;;5013493;28;20176;-51
2024/01/18 00:08:43;;;;;;;48.50;26.00;;;-2.00;1.00;;;;;;5013706;28;20264;-50
2024/01/18 00:11:09;;;;;;;50.43;26.90;;;-2.00;1.00;;;;;;5013818;28;20180;-50
2024/01/18 00:13:34;;;;;;;47.53;27.13;;;-2.00;1.00;;;;;;5014027;28;20191;-51
2024/01/18 00:16:00;;;;;;;42.80;26.93;;;-2.10;1.00;;;;;;5013724;28;20184;-51
2024/01/18 00:18:25;;;;;;;51.60;28.20;;;-2.10;1.00;;;;;;5013747;28;20180;-50
2024/01/18 00:20:51;;;;;;;45.50;27.23;;;-2.20;1.00;;;;;;5013987;28;20242;-51
2024/01/18 00:23:17;;;;;;;48.90;27.03;;;-2.20;30.20;;;;;;5013605;28;20177;-51
2024/01/18 00:25:42;;;;;;;47.10;27.00;;;-2.20;99.90;;;;;;5013498;28;20188;-51
2024/01/18 00:28:08;;;;;;;42.37;26.50;;;-2.20;1.00;;;;;;5013417;28;20187;-51
2024/01/18 00:30:33;;;;;;;54.93;28.37;;;-2.20;1.00;;;;;;5013379;28;20268;-51
2024/01/18 00:32:59;;;;;;;46.30;27.77;;;-2.20;99.90;;;;;;5013386;28;20180;-51
2024/01/18 00:35:25;;;;;;;51.07;27.73;;;-2.20;99.90;;;;;;5013699;28;20218;-51
2024/01/18 00:37:50;;;;;;;59.83;28.57;;;-2.20;99.90;;;;;;5013285;28;20218;-52
2024/01/18 00:40:16;;;;;;;49.53;27.93;;;-2.20;1.00;;;;;;5013460;28;20258;-50
2024/01/18 00:42:41;;;;;;;46.20;27.10;;;-2.20;1.00;;;;;;5013326;28;20180;-51
2024/01/18 00:45:07;;;;;;;54.43;28.23;;;-2.20;1.00;;;;;;5013429;28;20262;-52
2024/01/18 00:47:33;;;;;;;52.10;28.17;;;-2.20;1.00;;;;;;5013483;28;20639;-51
2024/01/18 00:49:59;;;;;;;47.47;26.80;;;-2.20;1.00;;;;;;5013584;28;20187;-50
2024/01/18 00:52:25;;;;;;;64.50;29.77;;;-2.20;1.00;;;;;;5013172;28;20992;-50
2024/01/18 00:54:50;;;;;;;59.97;29.43;;;-2.30;1.00;;;;;;5013179;28;20218;-50
2024/01/18 00:57:16;;;;;;;49.03;27.30;;;-2.20;98.30;;;;;;5013257;28;20422;-50
2024/01/18 00:59:42;;;;;;;48.20;27.50;;;-2.20;1.00;;;;;;5012989;28;20218;-51
2024/01/18 01:02:08;;;;;;;54.80;30.87;;;-2.10;1.00;;;;;;5013074;28;20188;-51
2024/01/18 01:04:34;;;;;;;59.70;30.27;;;-2.20;1.00;;;;;;5012574;28;20644;-51
2024/01/18 01:06:59;;;;;;;53.63;29.03;;;-2.10;1.00;;;;;;5012885;28;20474;-51
2024/01/18 01:09:25;;;;;;;49.67;29.93;;;-2.20;99.90;;;;;;5012532;28;20478;-51
2024/01/18 01:11:52;;;;;;;56.90;29.80;;;-2.20;99.90;;;;;;5014988;28;20187;-50
2024/01/18 01:14:18;;;;;;;51.03;28.73;;;-2.20;99.90;;;;;;5016792;28;20506;-51
2024/01/18 01:16:43;;;;;;;62.23;30.40;;;-2.20;1.00;;;;;;5016785;28;20896;-51
2024/01/18 01:19:09;;;;;;;49.17;28.20;;;-2.20;1.00;;;;;;5016891;28;20541;-51
2024/01/18 01:21:34;;;;;;;54.63;31.47;;;-2.20;99.90;;;;;;5016789;28;20180;-51
2024/01/18 01:24:00;;;;;;;56.23;29.23;;;-2.20;99.90;;;;;;5016956;28;20244;-51
2024/01/18 01:26:25;;;;;;;52.70;29.33;;;-2.10;1.00;;;;;;5016401;28;20183;-51
2024/01/18 01:28:51;;;;;;;54.87;28.97;;;-2.10;1.00;;;;;;5016927;28;20322;-51
2024/01/18 01:31:16;;;;;;;56.23;31.40;;;-2.10;1.00;;;;;;5016563;28;20212;-51
2024/01/18 01:33:42;;;;;;;56.90;30.93;;;-2.10;1.00;;;;;;5016756;28;20187;-51
2024/01/18 01:36:07;;;;;;;53.83;30.60;;;-2.00;1.00;;;;;;5016529;28;20193;-51
2024/01/18 01:38:33;;;;;;;53.57;30.27;;;-2.00;99.90;;;;;;5016438;28;20187;-51
2024/01/18 01:40:59;;;;;;;53.90;29.00;;;-2.10;33.70;;;;;;5016325;28;20641;-51
2024/01/18 01:43:31;;;;;;;56.77;30.27;;;-2.10;1.00;;;;;;5016524;28;20184;-51
2024/01/18 01:45:57;;;;;;;49.80;29.07;;;-2.10;1.00;;;;;;5016058;28;20423;-51
2024/01/18 01:48:23;;;;;;;52.30;30.53;;;-2.20;1.00;;;;;;5016074;28;20430;-50
2024/01/18 01:50:49;;;;;;;57.13;30.70;;;-2.20;1.00;;;;;;5015962;28;20188;-50
2024/01/18 01:53:18;;;;;;;56.47;30.30;;;-2.20;1.00;;;;;;5016255;28;20425;-50
2024/01/18 01:55:44;;;;;;;50.97;30.17;;;-2.20;1.00;;;;;;5016295;28;20188;-51
2024/01/18 01:58:11;;;;;;;53.07;30.10;;;-2.30;99.90;;;;;;5015860;28;20415;-51
2024/01/18 02:00:37;;;;;;;58.20;32.23;;;-2.30;99.90;;;;;;5016071;28;20467;-52
2024/01/18 02:03:03;;;;;;;57.20;30.40;;;-2.30;1.00;;;;;;5015738;28;20489;-50
2024/01/18 02:05:29;;;;;;;58.27;32.30;;;-2.30;17.40;;;;;;5015645;28;20595;-51
2024/01/18 02:07:55;;;;;;;52.90;31.03;;;-2.30;68.10;;;;;;5015904;28;20423;-51
2024/01/18 02:10:22;;;;;;;59.97;30.47;;;-2.30;25.10;;;;;;5015761;28;20441;-51
2024/01/18 02:12:50;;;;;;;60.33;30.07;;;-2.30;99.90;;;;;;5015896;28;20272;-51
2024/01/18 02:15:15;;;;;;;57.80;30.40;;;-2.30;77.90;;;;;;5015693;28;21019;-51
2024/01/18 02:17:41;;;;;;;55.67;31.20;;;-2.20;93.50;;;;;;5016038;28;20423;-51
2024/01/18 02:20:07;;;;;;;56.87;30.97;;;-2.20;1.00;;;;;;5015682;28;20255;-51
2024/01/18 02:22:40;;;;;;;53.40;31.70;;;-2.30;1.00;;;;;;5015165;28;20203;-51
2024/01/18 02:25:35;;;;;;;55.57;31.67;;;-2.30;1.00;;;;;;5015548;28;20411;-51
2024/01/18 02:28:01;;;;;;;50.23;28.63;;;-2.30;1.00;;;;;;5006817;28;20504;-51
2024/01/18 02:30:26;;;;;;;52.57;29.83;;;-2.40;1.00;;;;;;5015163;28;20958;-51
2024/01/18 02:32:52;;;;;;;55.17;30.47;;;-2.40;1.00;;;;;;5015433;28;20179;-51
2024/01/18 02:35:18;;;;;;;57.40;32.10;;;-2.50;1.00;;;;;;5015552;28;20176;-51
2024/01/18 02:37:44;;;;;;;50.07;27.70;;;-2.50;99.90;;;;;;5015627;28;20230;-51
2024/01/18 02:40:09;;;;;;;52.97;30.30;;;-2.50;99.90;;;;;;5015121;28;20497;-51
2024/01/18 02:42:35;;;;;;;56.83;31.07;;;-2.50;99.90;;;;;;5014952;28;20183;-51
2024/01/18 02:45:04;;;;;;;57.27;31.43;;;-2.60;99.90;;;;;;5015191;28;20419;-51
2024/01/18 02:47:30;;;;;;;50.67;30.00;;;-2.60;99.90;;;;;;5015224;28;20187;-50
2024/01/18 02:49:56;;;;;;;58.43;30.57;;;-2.60;99.90;;;;;;5015195;28;20430;-51
2024/01/18 02:52:22;;;;;;;56.63;30.03;;;-2.70;1.00;;;;;;5015002;28;20418;-50
2024/01/18 02:54:48;;;;;;;56.67;30.90;;;-2.70;99.90;;;;;;5014928;28;20426;-50
2024/01/18 02:57:13;;;;;;;52.80;31.33;;;-2.70;1.00;;;;;;5014788;28;20255;-51
2024/01/18 02:59:39;;;;;;;67.40;31.50;;;-2.70;38.40;;;;;;5014506;28;20226;-50
2024/01/18 03:02:05;;;;;;;58.03;30.80;;;-2.70;99.90;;;;;;5015274;28;20180;-50
2024/01/18 03:04:31;;;;;;;51.67;29.60;;;-2.80;1.00;;;;;;5014532;28;20237;-50
2024/01/18 03:06:57;;;;;;;52.00;30.07;;;-2.80;1.00;;;;;;5014753;28;20184;-51
2024/01/18 03:09:22;;;;;;;57.90;33.20;;;-2.90;99.90;;;;;;5014609;28;20803;-51
2024/01/18 03:11:48;;;;;;;48.50;29.20;;;-2.90;99.90;;;;;;5015129;28;20187;-51
2024/01/18 03:14:13;;;;;;;59.67;32.40;;;-2.90;99.90;;;;;;5014312;28;20659;-51
2024/01/18 03:16:42;;;;;;;52.77;30.67;;;-3.00;1.00;;;;;;5014720;28;20653;-50
2024/01/18 03:19:12;;;;;;;67.17;32.67;;;-3.00;1.00;;;;;;5014420;28;20273;-50
2024/01/18 03:21:38;;;;;;;59.50;31.30;;;-2.90;54.30;;;;;;5014670;28;20423;-50
2024/01/18 03:24:04;;;;;;;57.20;31.70;;;-3.00;99.90;;;;;;5014489;28;20411;-51
2024/01/18 03:26:30;;;;;;;59.57;32.30;;;-2.90;99.90;;;;;;5014033;28;20974;-51
2024/01/18 03:28:55;;;;;;;64.53;33.77;;;-2.90;99.90;;;;;;5014721;28;20422;-51
2024/01/18 03:31:21;;;;;;;55.57;31.70;;;-2.90;99.90;;;;;;5014663;28;20546;-51
2024/01/18 03:33:47;;;;;;;64.77;33.63;;;-2.80;99.90;;;;;;5014222;28;20528;-51
2024/01/18 03:36:12;;;;;;;63.63;34.60;;;-2.80;99.90;;;;;;5013713;28;20227;-51
2024/01/18 03:38:38;;;;;;;67.53;34.17;;;-2.80;99.90;;;;;;5014089;28;20187;-51
2024/01/18 03:41:04;;;;;;;64.73;35.30;;;-2.90;92.60;;;;;;5014246;28;20184;-51
2024/01/18 03:43:29;;;;;;;61.70;33.90;;;-3.00;1.00;;;;;;5014310;28;20211;-50
2024/01/18 03:45:55;;;;;;;59.50;34.60;;;-3.00;22.60;;;;;;5013986;28;20176;-50
2024/01/18 03:48:20;;;;;;;61.93;34.97;;;-3.00;99.90;;;;;;5013981;28;20180;-49
2024/01/18 03:50:46;;;;;;;68.10;35.67;;;-3.00;99.90;;;;;;5013961;28;20528;-50
2024/01/18 03:53:12;;;;;;;62.90;34.87;;;-3.00;99.90;;;;;;5014107;28;20254;-50
2024/01/18 03:55:37;;;;;;;63.17;34.30;;;-3.00;99.90;;;;;;5014148;28;20211;-51
2024/01/18 03:58:03;;;;;;;58.17;32.80;;;-3.00;99.90;;;;;;5013805;28;20536;-50
2024/01/18 04:00:29;;;;;;;66.97;34.57;;;-3.00;99.90;;;;;;5013916;28;20212;-50
2024/01/18 04:02:54;;;;;;;58.60;31.97;;;-3.10;99.90;;;;;;5013513;28;20184;-51
2024/01/18 04:05:20;;;;;;;55.03;32.47;;;-3.20;99.90;;;;;;5028637;28;20198;-50
2024/01/18 04:07:45;;;;;;;68.53;33.33;;;-3.20;99.90;;;;;;5013883;28;20270;-50
2024/01/18 04:10:11;;;;;;;59.80;34.30;;;-3.20;1.00;;;;;;5013254;28;20231;-51
2024/01/18 04:12:37;;;;;;;66.13;34.20;;;-3.20;1.00;;;;;;5014008;28;20191;-51
2024/01/18 04:15:03;;;;;;;64.00;35.07;;;-3.30;1.00;;;;;;5013474;28;20176;-50
2024/01/18 04:17:29;;;;;;;63.50;34.73;;;-3.30;1.00;;;;;;5013630;28;20242;-50
2024/01/18 04:19:54;;;;;;;59.37;32.20;;;-3.30;1.00;;;;;;5013412;28;20466;-51
2024/01/18 04:22:22;;;;;;;62.63;33.83;;;-3.30;1.00;;;;;;5013517;28;20184;-51
2024/01/18 04:24:48;;;;;;;68.67;35.67;;;-3.20;1.00;;;;;;5013576;28;20211;-50
2024/01/18 04:27:14;;;;;;;59.97;33.03;;;-3.30;1.00;;;;;;5013467;28;20932;-50
2024/01/18 04:29:39;;;;;;;63.80;34.10;;;-3.30;1.00;;;;;;5013666;28;20582;-50
2024/01/18 04:32:05;;;;;;;71.30;36.53;;;-3.20;1.00;;;;;;5013450;28;20179;-50
2024/01/18 04:34:31;;;;;;;64.03;34.30;;;-3.20;1.00;;;;;;5013795;28;20188;-50
2024/01/18 04:36:57;;;;;;;61.23;33.50;;;-3.20;1.00;;;;;;5013621;28;20249;-50
2024/01/18 04:39:22;;;;;;;59.13;32.17;;;-3.20;1.00;;;;;;5013500;28;20474;-50
2024/01/18 04:41:48;;;;;;;61.50;31.80;;;-3.20;1.00;;;;;;5013378;28;20636;-50
2024/01/18 04:44:13;;;;;;;64.67;32.50;;;-3.30;1.00;;;;;;5013432;28;20711;-51
2024/01/18 04:46:39;;;;;;;56.97;31.37;;;-3.30;1.00;;;;;;5015315;28;20638;-50
2024/01/18 04:49:05;;;;;;;58.63;32.50;;;-3.30;1.00;;;;;;5017131;28;20743;-50
2024/01/18 04:51:30;;;;;;;60.27;33.30;;;-3.30;1.00;;;;;;5016898;28;20184;-50
2024/01/18 04:53:56;;;;;;;64.70;33.30;;;-3.40;1.00;;;;;;5016863;28;20234;-50
2024/01/18 04:56:22;;;;;;;54.10;30.73;;;-3.40;1.00;;;;;;5016481;28;20207;-50
2024/01/18 04:58:48;;;;;;;52.87;29.40;;;-3.40;1.00;;;;;;5016684;28;20181;-50
2024/01/18 05:01:13;;;;;;;59.53;31.30;;;-3.50;1.00;;;;;;5017005;28;20172;-50
2024/01/18 05:03:39;;;;;;;55.93;32.30;;;-3.50;1.00;;;;;;5016851;28;20529;-50
2024/01/18 05:06:04;;;;;;;57.07;31.03;;;-3.60;1.00;;;;;;5017357;28;20202;-50
2024/01/18 05:08:30;;;;;;;60.53;33.40;;;-3.60;1.00;;;;;;5017150;28;20684;-53
2024/01/18 05:10:56;;;;;;;58.93;32.10;;;-3.40;1.00;;;;;;5017021;28;20704;-50
2024/01/18 05:13:22;;;;;;;57.83;33.10;;;-3.40;1.00;;;;;;5016910;28;20184;-49
2024/01/18 05:15:47;;;;;;;62.27;32.17;;;-3.40;1.00;;;;;;5017002;28;20262;-51
2024/01/18 05:18:16;;;;;;;67.43;33.53;;;-3.50;1.00;;;;;;5016810;28;20500;-49
2024/01/18 05:20:42;;;;;;;66.90;33.00;;;-3.50;1.00;;;;;;5016760;28;20266;-50
2024/01/18 05:23:07;;;;;;;63.63;33.67;;;-3.50;1.00;;;;;;5016615;28;20414;-50
2024/01/18 05:25:33;;;;;;;62.63;33.83;;;-3.50;1.00;;;;;;5016521;28;20180;-50
2024/01/18 05:28:00;;;;;;;65.20;35.70;;;-3.50;1.00;;;;;;5016429;28;20191;-50
2024/01/18 05:30:25;;;;;;;64.40;34.93;;;-3.40;1.00;;;;;;5016742;28;20187;-50
2024/01/18 05:32:51;;;;;;;75.17;35.10;;;-3.40;1.00;;;;;;5016527;28;20452;-50
2024/01/18 05:35:17;;;;;;;61.77;33.20;;;-3.50;1.00;;;;;;5016401;28;20184;-50
2024/01/18 05:37:42;;;;;;;65.03;34.30;;;-3.50;1.00;;;;;;5016645;28;20211;-50
2024/01/18 05:40:09;;;;;;;68.13;36.20;;;-3.50;1.00;;;;;;5016116;28;20262;-50
2024/01/18 05:42:34;;;;;;;60.80;34.67;;;-3.60;1.00;;;;;;5015268;28;20187;-49
2024/01/18 05:45:00;;;;;;;60.33;33.27;;;-3.60;1.00;;;;;;5016307;28;20962;-50
2024/01/18 05:47:26;;;;;;;67.97;33.50;;;-3.70;1.00;;;;;;5016468;28;20176;-50
2024/01/18 05:49:51;;;;;;;71.70;32.60;;;-3.70;1.00;;;;;;5016175;28;20187;-50
2024/01/18 05:52:17;;;;;;;64.10;34.20;;;-3.70;1.00;;;;;;5016256;28;20184;-50
2024/01/18 05:54:42;;;;;;;66.63;34.03;;;-3.80;1.00;;;;;;5016338;28;20538;-50
2024/01/18 05:57:08;;;;;;;64.50;34.37;;;-3.70;1.00;;;;;;5015911;28;20630;-50
2024/01/18 05:59:34;;;;;;;64.70;33.70;;;-3.70;1.40;;;;;;5015346;28;20226;-50
2024/01/18 06:01:59;;;;;;;70.27;34.17;;;-3.70;18.10;;;;;;5015756;28;20239;-49
2024/01/18 06:04:25;;;;;;;69.93;33.70;;;-3.70;31.90;;;;;;5016025;28;20184;-49
2024/01/18 06:06:51;;;;;;;64.80;33.13;;;-3.60;34.20;;;;;;5015652;28;20266;-49
2024/01/18 06:09:18;;;;;;;61.13;32.83;;;-3.60;51.00;;;;;;5015935;28;20474;-49
2024/01/18 06:11:44;;;;;;;72.63;32.97;;;-3.60;42.70;;;;;;5015994;28;20481;-49
2024/01/18 06:14:10;;;;;;;77.47;34.43;;;-3.50;53.50;;;;;;5015692;28;20414;-49
2024/01/18 06:16:36;;;;;;;70.50;35.00;;;-3.50;64.90;;;;;;5015783;28;20895;-50
2024/01/18 06:19:02;;;;;;;65.03;33.87;;;-3.50;69.20;;;;;;5015324;28;20415;-50
2024/01/18 06:21:27;;;;;;;65.97;35.80;;;-3.40;78.70;;;;;;5016021;28;20211;-49
2024/01/18 06:23:53;;;;;;;67.97;34.70;;;-3.40;75.10;;;;;;5015725;28;20188;-49
2024/01/18 06:26:18;;;;;;;66.20;34.43;;;-3.40;72.00;;;;;;5015379;28;20203;-49
2024/01/18 06:28:44;;;;;;;74.43;36.90;;;-3.30;69.20;;;;;;5015289;28;20234;-49
2024/01/18 06:31:10;;;;;;;74.37;36.97;;;-3.40;57.20;;;;;;5015555;28;20180;-50
2024/01/18 06:33:35;;;;;;;76.70;36.87;;;-3.30;51.20;;;;;;5015672;28;20207;-49
2024/01/18 06:36:02;;;;;;;67.27;35.30;;;-3.20;42.00;;;;;;5015365;28;20194;-49
2024/01/18 06:38:28;;;;;;;69.00;37.20;;;-3.30;11.30;;;;;;5015191;28;20193;-50
2024/01/18 06:40:58;;;;;;;76.60;37.50;;;-3.30;1.00;;;;;;5015103;28;20839;-49
2024/01/18 06:43:25;;;;;;;74.27;37.20;;;-3.30;1.00;;;;;;5015379;28;20267;-50
2024/01/18 06:45:54;;;;;;;69.73;35.67;;;-3.40;1.00;;;;;;5015098;28;21161;-50
2024/01/18 06:48:20;;;;;;;68.40;37.00;;;-3.40;1.00;;;;;;5015042;28;20418;-50
2024/01/18 06:50:46;;;;;;;72.33;37.60;;;-3.40;1.00;;;;;;5014802;28;20784;-50
2024/01/18 06:53:12;;;;;;;68.67;35.90;;;-3.40;1.00;;;;;;5015105;28;20427;-50
2024/01/18 06:55:37;;;;;;;73.37;36.87;;;-3.40;1.00;;;;;;5015171;28;20284;-50
2024/01/18 06:58:03;;;;;;;71.33;36.63;;;-3.40;1.00;;;;;;5014994;28;20188;-50
2024/01/18 07:00:29;;;;;;;73.23;38.87;;;-3.40;1.00;;;;;;5014829;28;20243;-49
2024/01/18 07:02:54;;;;;;;75.13;37.83;;;-3.40;1.00;;;;;;5015141;28;20183;-50
2024/01/18 07:05:20;;;;;;;68.20;34.47;;;-3.30;1.00;;;;;;5014835;28;20550;-50
2024/01/18 07:07:46;;;;;;;65.17;35.47;;;-3.30;1.00;;;;;;5013252;28;20184;-50
2024/01/18 07:10:12;;;;;;;72.13;37.50;;;-3.40;1.00;;;;;;5014590;28;20565;-51
2024/01/18 07:12:38;;;;;;;70.40;36.73;;;-3.40;1.00;;;;;;5014823;28;20415;-50
2024/01/18 07:15:04;;;;;;;73.70;36.30;;;-3.50;1.00;;;;;;5014574;28;20563;-49
2024/01/18 07:17:30;;;;;;;71.37;36.10;;;-3.50;1.00;;;;;;5014651;28;20210;-49
2024/01/18 07:19:56;;;;;;;71.60;36.07;;;-3.40;1.00;;;;;;5014567;28;20986;-49
2024/01/18 07:22:22;;;;;;;68.20;36.93;;;-3.50;1.00;;;;;;5014741;28;20279;-49
2024/01/18 07:24:48;;;;;;;65.73;36.20;;;-3.40;1.00;;;;;;5014364;28;20915;-50
2024/01/18 07:27:13;;;;;;;63.97;34.40;;;-3.40;1.00;;;;;;5014178;28;20426;-49
2024/01/18 07:29:39;;;;;;;79.17;35.40;;;-3.40;1.00;;;;;;5014542;28;20267;-50
2024/01/18 07:32:05;;;;;;;72.37;36.93;;;-3.40;1.00;;;;;;5014371;28;20179;-50
2024/01/18 07:34:35;;;;;;;68.50;35.63;;;-3.40;1.00;;;;;;5014254;28;20229;-50
2024/01/18 07:37:01;;;;;;;64.90;34.43;;;-3.40;1.00;;;;;;5014144;28;20669;-50
2024/01/18 07:39:27;;;;;;;70.97;36.63;;;-3.40;1.00;;;;;;5013622;28;20557;-50
2024/01/18 07:41:53;;;;;;;76.83;38.77;;;-3.40;1.00;;;;;;5014371;28;20265;-50
2024/01/18 07:44:19;;;;;;;79.43;40.80;;;-3.40;1.00;;;;;;5014211;28;20718;-50
2024/01/18 07:46:44;;;;;;;74.50;40.00;;;-3.40;1.00;;;;;;5014187;28;20422;-50
2024/01/18 07:49:10;;;;;;;72.03;37.07;;;-3.50;1.00;;;;;;5014214;28;20199;-51
2024/01/18 07:51:35;;;;;;;66.03;35.10;;;-3.50;1.00;;;;;;5014188;28;20513;-50
2024/01/18 07:54:01;;;;;;;69.53;35.33;;;-3.40;1.00;;;;;;5014139;28;20570;-50
2024/01/18 07:56:27;;;;;;;64.13;35.17;;;-3.40;1.00;;;;;;5013892;28;20270;-50
2024/01/18 07:58:53;;;;;;;63.00;35.93;;;-3.40;1.00;;;;;;5014043;28;20211;-49
2024/01/18 08:01:19;;;;;;;57.53;33.00;;;-3.40;1.00;;;;;;5013730;28;20417;-50
2024/01/18 08:03:44;;;;;;;64.43;34.40;;;-3.30;1.00;;;;;;5013821;28;20180;-50
2024/01/18 08:06:11;;;;;;;63.00;33.70;;;-3.30;1.00;;;;;;5013879;28;20651;-49
2024/01/18 08:08:38;;;;;;;67.03;35.10;;;-3.30;1.00;;;;;;5013333;28;20625;-49
2024/01/18 08:11:03;;;;;;;67.50;34.13;;;-3.30;1.00;;;;;;5013885;28;20440;-50
2024/01/18 08:13:29;;;;;;;66.50;33.83;;;-3.30;1.00;;;;;;5012814;28;20446;-50
2024/01/18 08:15:57;;;;;;;62.00;33.27;;;-3.20;1.00;;;;;;5012501;28;20514;-50
2024/01/18 08:18:26;;;;;;;59.00;31.97;;;-3.10;1.00;;;;;;5013666;28;20223;-50
2024/01/18 08:20:52;;;;;;;63.03;31.80;;;-3.10;99.90;;;;;;5012972;28;20462;-50
2024/01/18 08:23:18;;;;;;;63.13;32.73;;;-3.10;99.90;;;;;;5013897;28;20969;-50
2024/01/18 08:25:44;;;;;;;64.47;32.43;;;-3.00;99.90;;;;;;5013423;28;20181;-50
2024/01/18 08:28:13;;;;;;;60.37;31.47;;;-3.00;99.90;;;;;;5013605;28;20422;-49
2024/01/18 08:30:39;;;;;;;62.33;32.30;;;-3.00;99.90;;;;;;5013648;28;20471;-50
2024/01/18 08:33:05;;;;;;;61.03;31.00;;;-2.90;99.90;;;;;;5013566;28;20419;-50
2024/01/18 08:35:30;;;;;;;62.07;30.97;;;-2.90;99.90;;;;;;5013266;28;20198;-49
2024/01/18 08:37:56;;;;;;;63.90;32.50;;;-2.90;99.90;;;;;;5013172;28;20423;-49
2024/01/18 08:40:23;;;;;;;64.80;32.90;;;-2.80;99.90;;;;;;5012530;28;20219;-49
2024/01/18 08:42:49;;;;;;;55.10;31.40;;;-2.80;99.90;;;;;;5012565;28;20655;-50
2024/01/18 08:45:15;;;;;;;56.93;31.00;;;-2.80;99.90;;;;;;5013022;28;20427;-49
2024/01/18 08:47:41;;;;;;;56.93;32.80;;;-2.70;99.90;;;;;;5013023;28;20735;-49
2024/01/18 08:50:06;;;;;;;60.37;31.40;;;-2.70;99.90;;;;;;5012877;28;20617;-49
2024/01/18 08:52:32;;;;;;;53.23;31.27;;;-2.60;99.90;;;;;;5013290;28;20458;-49
2024/01/18 08:54:57;;;;;;;57.87;32.20;;;-2.50;99.90;;;;;;5013682;28;20418;-50
2024/01/18 08:57:23;;;;;;;48.53;28.13;;;-2.50;99.90;;;;;;5013549;28;20194;-50
2024/01/18 08:59:49;;;;;;;61.13;30.13;;;-2.50;99.90;;;;;;5013358;28;20218;-51
2024/01/18 09:02:15;;;;;;;49.20;28.97;;;-2.50;99.90;;;;;;5013458;28;20246;-49
2024/01/18 09:04:40;;;;;;;52.60;29.47;;;-2.40;99.90;;;;;;5013342;28;20193;-50
2024/01/18 09:07:06;;;;;;;51.57;27.97;;;-2.40;64.10;;;;;;5011439;28;20419;-50
2024/01/18 09:09:31;;;;;;;50.17;28.23;;;-2.30;1.00;;;;;;5010554;28;20247;-50
2024/01/18 09:11:57;;;;;;;48.83;28.20;;;-2.30;1.00;;;;;;5009186;28;20188;-50
2024/01/18 09:14:23;;;;;;;47.57;27.27;;;-2.20;1.00;;;;;;5009501;28;20286;-50
2024/01/18 09:16:49;;;;;;;51.43;26.00;;;-2.20;1.00;;;;;;5008773;28;20183;-50
2024/01/18 09:19:15;;;;;;;50.00;27.30;;;-2.10;1.00;;;;;;5010109;28;20216;-50
2024/01/18 09:21:41;;;;;;;50.27;26.60;;;-2.00;1.00;;;;;;5009751;28;20433;-50
2024/01/18 09:24:07;;;;;;;42.73;26.00;;;-1.90;1.00;;;;;;5010176;28;20203;-51
2024/01/18 09:26:33;;;;;;;43.57;26.00;;;-1.90;99.90;;;;;;5009489;28;20913;-50
2024/01/18 09:28:59;;;;;;;43.87;24.80;;;-1.80;99.90;;;;;;5010235;28;20430;-51
2024/01/18 09:31:24;;;;;;;42.80;24.90;;;-1.80;99.90;;;;;;5010451;28;20596;-50
2024/01/18 09:33:50;;;;;;;42.50;24.00;;;-1.70;93.90;;;;;;5012007;28;20188;-51
2024/01/18 09:36:15;;;;;;;45.07;26.00;;;-1.70;1.00;;;;;;5012303;28;20298;-51
2024/01/18 09:38:41;;;;;;;41.50;23.63;;;-1.60;1.00;;;;;;5013107;28;20310;-50
2024/01/18 09:41:08;;;;;;;39.83;24.60;;;-1.50;1.00;;;;;;5014707;28;20218;-50
2024/01/18 09:43:39;;;;;;;40.73;22.37;;;-1.40;1.00;;;;;;5014363;28;20565;-51
2024/01/18 09:46:06;;;;;;;41.73;24.33;;;-1.40;1.00;;;;;;5013482;28;20438;-50
2024/01/18 09:48:36;;;;;;;43.03;23.13;;;-1.30;1.00;;;;;;5012623;28;21056;-51
2024/01/18 09:51:04;;;;;;;37.97;21.90;;;-1.30;99.90;;;;;;5013751;28;20846;-50
2024/01/18 09:53:31;;;;;;;33.83;21.97;;;-1.30;99.90;;;;;;5013783;28;20427;-50
2024/01/18 09:56:13;;;;;;;35.80;20.70;;;-1.20;99.90;;;;;;5012415;28;20911;-51
2024/01/18 09:58:38;;;;;;;39.43;21.70;;;-1.20;1.00;;;;;;5014000;28;20419;-51
2024/01/18 10:01:06;;;;;;;33.43;19.90;;;-1.10;99.90;;;;;;5012971;28;20470;-50
2024/01/18 10:03:31;;;;;;;32.80;20.23;;;-1.00;99.90;;;;;;5013307;28;20362;-50
2024/01/18 10:05:57;;;;;;;34.63;20.90;;;-1.00;99.90;;;;;;5012751;28;20517;-50
2024/01/18 10:08:23;;;;;;;31.90;19.80;;;-0.90;99.90;;;;;;5013001;28;20759;-50
2024/01/18 10:10:48;;;;;;;31.50;19.80;;;-0.60;1.00;;;;;;5013131;28;20668;-50
2024/01/18 10:13:14;;;;;;;28.50;18.80;;;0.00;1.00;;;;;;5012824;28;20536;-51
2024/01/18 10:15:41;;;;;;;27.63;18.20;;;0.80;1.00;;;;;;5013768;28;20192;-51
2024/01/18 10:18:07;;;;;;;29.47;17.33;;;1.50;1.00;;;;;;5013801;28;20426;-50
2024/01/18 10:20:33;;;;;;;33.13;16.43;;;2.10;99.90;;;;;;5012398;28;20467;-51
2024/01/18 10:22:59;;;;;;;22.20;14.60;;;2.60;99.90;;;;;;5012289;28;20659;-50
2024/01/18 10:25:26;;;;;;;18.37;13.23;;;2.60;99.90;;;;;;5011656;28;20202;-50
2024/01/18 10:27:53;;;;;;;22.50;14.03;;;2.30;75.90;;;;;;5013381;28;20446;-51
2024/01/18 10:30:19;;;;;;;21.93;13.80;;;2.00;70.10;;;;;;5012494;28;20764;-51
2024/01/18 10:32:45;;;;;;;28.13;14.60;;;1.80;74.10;;;;;;5013215;28;20423;-52
2024/01/18 10:35:20;;;;;;;23.67;14.33;;;1.60;88.10;;;;;;5011800;28;20422;-51
2024/01/18 10:37:45;;;;;;;21.43;13.43;;;1.40;95.70;;;;;;5012599;28;20453;-51
2024/01/18 10:40:19;;;;;;;21.17;14.20;;;1.40;99.90;;;;;;5012728;28;20511;-51
2024/01/18 10:42:46;;;;;;;20.40;12.47;;;1.40;99.90;;;;;;5011862;28;20758;-51
2024/01/18 10:45:12;;;;;;;23.90;13.50;;;1.60;99.90;;;;;;5012171;28;20526;-51
2024/01/18 10:47:38;;;;;;;22.80;11.93;;;2.00;99.90;;;;;;5011415;28;20502;-51
2024/01/18 10:50:06;;;;;;;18.20;10.60;;;2.70;99.90;;;;;;5013174;28;20692;-51
2024/01/18 10:52:35;;;;;;;13.03;9.90;;;3.80;69.00;;;;;;5011745;28;20419;-51
2024/01/18 10:55:06;;;;;;;12.03;8.93;;;4.90;8.60;;;;;;5012563;28;20518;-51
2024/01/18 10:57:31;;;;;;;10.50;8.10;;;6.60;1.00;;;;;;5012064;28;20411;-51
2024/01/18 10:59:59;;;;;;;13.27;8.77;;;8.30;1.00;;;;;;5011301;28;21000;-51
2024/01/18 11:02:25;;;;;;;12.77;9.03;;;10.10;1.00;;;;;;5011625;28;20181;-51
2024/01/18 11:04:52;;;;;;;10.20;7.70;;;11.90;1.00;;;;;;5012712;28;20534;-51
2024/01/18 11:07:19;;;;;;;9.70;7.00;;;13.20;1.00;;;;;;5013172;28;20183;-51
2024/01/18 11:09:46;;;;;;;12.33;7.27;;;13.40;1.00;;;;;;5011585;28;20469;-51
2024/01/18 11:12:13;;;;;;;9.00;7.23;;;12.80;1.00;;;;;;5010892;28;20990;-51
2024/01/18 11:14:40;;;;;;;13.40;7.53;;;13.50;1.00;;;;;;5012088;28;20825;-51
2024/01/18 11:17:26;;;;;;;14.40;7.00;;;14.60;1.00;;;;;;5012383;28;20423;-52
2024/01/18 11:19:54;;;;;;;8.60;6.83;;;15.10;1.00;;;;;;5010526;28;20470;-52
2024/01/18 11:22:27;;;;;;;10.90;6.90;;;15.50;1.00;;;;;;5012415;28;20421;-52
2024/01/18 11:24:59;;;;;;;13.10;6.80;;;15.40;1.00;;;;;;5011469;28;20494;-52
2024/01/18 11:27:25;;;;;;;9.40;6.70;;;15.20;1.00;;;;;;5011599;28;20906;-52
2024/01/18 11:29:51;;;;;;;8.63;6.70;;;14.40;1.00;;;;;;5011061;28;20419;-52
2024/01/18 11:32:20;;;;;;;10.37;6.70;;;13.30;1.00;;;;;;5011643;28;20232;-52
2024/01/18 11:34:49;;;;;;;7.90;6.60;;;12.90;1.00;;;;;;5010809;28;20266;-52
2024/01/18 11:37:16;;;;;;;7.67;5.93;;;12.20;1.00;;;;;;5011884;28;20410;-52
2024/01/18 11:39:47;;;;;;;9.57;6.07;;;11.40;1.00;;;;;;5011925;28;20493;-51
2024/01/18 11:42:22;;;;;;;6.93;6.00;;;10.60;1.00;;;;;;5009773;28;20422;-52
2024/01/18 11:45:11;;;;;;;7.97;5.77;;;9.80;1.00;;;;;;5010103;28;20423;-51
2024/01/18 11:47:37;;;;;;;12.03;6.13;;;9.20;1.00;;;;;;5011632;28;20431;-51
2024/01/18 11:50:06;;;;;;;10.97;6.00;;;9.00;1.00;;;;;;5010883;28;20930;-51
2024/01/18 11:52:34;;;;;;;8.07;6.10;;;8.70;1.00;;;;;;5010379;28;20559;-51
2024/01/18 11:55:01;;;;;;;9.63;5.60;;;7.90;1.00;;;;;;5010091;28;20423;-51
2024/01/18 11:57:27;;;;;;;5.80;5.00;;;7.50;1.00;;;;;;5011583;28;20811;-51
2024/01/18 11:59:53;;;;;;;8.27;5.43;;;7.50;1.00;;;;;;5011349;28;20470;-52
2024/01/18 12:02:20;;;;;;;8.37;5.90;;;7.60;1.00;;;;;;5011534;28;20454;-51
2024/01/18 12:04:45;;;;;;;5.80;4.70;;;8.00;1.00;;;;;;5010790;28;20426;-51
2024/01/18 12:07:12;;;;;;;5.57;4.60;;;8.80;1.00;;;;;;5011480;28;20423;-51
2024/01/18 12:09:38;;;;;;;9.57;4.50;;;8.70;1.00;;;;;;5009607;28;20385;-51
2024/01/18 12:12:05;;;;;;;8.27;4.57;;;8.10;1.00;;;;;;5011153;28;20482;-52
2024/01/18 12:14:32;;;;;;;7.33;4.40;;;7.40;1.00;;;;;;5010966;28;20959;-52
2024/01/18 12:16:57;;;;;;;7.47;4.83;;;7.00;1.00;;;;;;5011220;28;20442;-51
2024/01/18 12:19:33;;;;;;;6.87;4.30;;;7.10;1.00;;;;;;5009367;28;20462;-51
2024/01/18 12:22:05;;;;;;;5.07;3.70;;;7.40;1.00;;;;;;5010135;28;20180;-51
2024/01/18 12:24:32;;;;;;;5.67;3.30;;;8.20;1.00;;;;;;5011299;28;20892;-51
2024/01/18 12:26:58;;;;;;;8.50;3.57;;;9.40;1.00;;;;;;5011843;28;20759;-51
2024/01/18 12:29:24;;;;;;;7.03;3.80;;;10.50;1.00;;;;;;5010374;28;20435;-51
2024/01/18 12:31:50;;;;;;;3.60;2.97;;;11.90;1.00;;;;;;5009969;28;20416;-51